Time;durP1;ratioP1;P1;durP2;ratioP2;P2;SDS_P1;SDS_P2;PMS_P1;PMS_P2;Temp;Humidity;BMP_temperature;BMP_pressure;BME280_temperature;BME280_humidity;BME280_pressure;Samples;Min_cycle;Max_cycle;Signal;HPM_P1;HPM_P2
2023/09/18 00:00:27;;;;;;;23.60;21.48;;;16.50;99.90;;;;;;4991819;28;20224;-75
2023/09/18 00:02:53;;;;;;;28.77;25.73;;;16.50;99.90;;;;;;5038382;28;20046;-75
2023/09/18 00:05:18;;;;;;;26.13;23.73;;;16.50;99.90;;;;;;5037614;28;20128;-74
2023/09/18 00:07:45;;;;;;;22.45;20.45;;;16.50;99.90;;;;;;5024853;28;20042;-75
2023/09/18 00:10:11;;;;;;;22.27;20.27;;;16.50;99.90;;;;;;5009083;28;20117;-75
2023/09/18 00:12:37;;;;;;;29.00;26.10;;;16.50;99.90;;;;;;5021341;28;20033;-75
2023/09/18 00:15:04;;;;;;;29.85;26.92;;;16.50;99.90;;;;;;5023769;28;20033;-75
2023/09/18 00:17:30;;;;;;;29.08;26.10;;;16.50;99.90;;;;;;5023520;28;20045;-75
2023/09/18 00:19:55;;;;;;;28.35;25.55;;;16.50;99.90;;;;;;5037099;28;20050;-75
2023/09/18 00:22:21;;;;;;;29.20;26.27;;;16.50;99.90;;;;;;4985212;28;20073;-74
2023/09/18 00:24:47;;;;;;;24.25;22.05;;;16.40;99.90;;;;;;5006462;28;20042;-74
2023/09/18 00:27:13;;;;;;;28.02;25.05;;;16.40;99.90;;;;;;5020393;28;20053;-74
2023/09/18 00:29:39;;;;;;;29.50;26.38;;;16.40;99.90;;;;;;5018579;28;20042;-75
2023/09/18 00:32:06;;;;;;;26.38;23.80;;;16.40;99.90;;;;;;5014103;28;20033;-74
2023/09/18 00:34:32;;;;;;;28.20;25.30;;;16.40;99.90;;;;;;5023508;28;20041;-75
2023/09/18 00:36:59;;;;;;;23.27;21.13;;;16.30;99.90;;;;;;5024529;28;20406;-75
2023/09/18 00:39:25;;;;;;;31.20;27.95;;;16.30;99.90;;;;;;5018359;28;20129;-75
2023/09/18 00:41:54;;;;;;;28.33;25.40;;;16.30;99.90;;;;;;4990482;28;20396;-75
2023/09/18 00:44:21;;;;;;;29.08;26.20;;;16.30;99.90;;;;;;5020769;28;20048;-74
2023/09/18 00:46:48;;;;;;;37.63;27.80;;;16.30;99.90;;;;;;5019376;28;20100;-74
2023/09/18 00:49:15;;;;;;;31.40;28.40;;;16.30;99.90;;;;;;5022715;28;20050;-74
2023/09/18 00:51:40;;;;;;;31.33;28.10;;;16.20;99.90;;;;;;5055187;28;20130;-75
2023/09/18 00:54:08;;;;;;;38.17;32.45;;;16.20;99.90;;;;;;5039006;28;20128;-75
2023/09/18 00:56:34;;;;;;;29.88;26.95;;;16.20;99.90;;;;;;5008918;28;20042;-74
2023/09/18 00:59:02;;;;;;;34.13;30.45;;;16.20;99.90;;;;;;5035206;28;20121;-74
2023/09/18 01:01:29;;;;;;;38.97;34.50;;;16.20;99.90;;;;;;5036917;28;20085;-74
2023/09/18 01:03:56;;;;;;;34.63;31.10;;;16.20;99.90;;;;;;5040506;28;20054;-74
2023/09/18 01:06:27;;;;;;;34.10;30.63;;;16.10;99.90;;;;;;5005631;28;20042;-75
2023/09/18 01:08:54;;;;;;;35.15;31.48;;;16.10;99.90;;;;;;5007007;28;20507;-74
2023/09/18 01:11:31;;;;;;;32.10;28.77;;;16.10;99.90;;;;;;5008835;28;20050;-74
2023/09/18 01:14:11;;;;;;;43.67;36.60;;;16.10;99.90;;;;;;5008885;28;20092;-73
2023/09/18 01:16:49;;;;;;;36.55;32.60;;;16.10;99.90;;;;;;5033086;28;20046;-73
2023/09/18 01:19:15;;;;;;;33.30;29.65;;;16.10;99.90;;;;;;5033502;28;20048;-74
2023/09/18 01:21:41;;;;;;;33.33;30.10;;;16.10;99.90;;;;;;5024382;28;20041;-73
2023/09/18 01:24:06;;;;;;;36.33;32.80;;;16.10;99.90;;;;;;5002266;28;20077;-73
2023/09/18 01:26:32;;;;;;;43.60;36.38;;;16.20;99.90;;;;;;5006334;28;20048;-73
2023/09/18 01:28:58;;;;;;;37.90;33.88;;;16.20;99.90;;;;;;5001345;28;20037;-73
2023/09/18 01:31:26;;;;;;;37.50;33.72;;;16.20;99.90;;;;;;4989728;28;20122;-73
2023/09/18 01:33:53;;;;;;;32.63;29.42;;;16.20;99.90;;;;;;5006031;28;20101;-74
2023/09/18 01:36:19;;;;;;;42.47;36.33;;;16.20;99.90;;;;;;5008418;28;20108;-73
2023/09/18 01:38:46;;;;;;;43.47;37.72;;;16.20;99.90;;;;;;5024310;28;20053;-74
2023/09/18 01:41:12;;;;;;;45.75;39.08;;;16.30;99.90;;;;;;5003455;28;20099;-75
2023/09/18 01:43:38;;;;;;;44.42;39.45;;;16.30;99.90;;;;;;5005728;28;20053;-74
2023/09/18 01:46:04;;;;;;;48.30;41.45;;;16.30;99.90;;;;;;5017115;28;20042;-75
2023/09/18 01:48:30;;;;;;;43.40;38.90;;;16.40;99.90;;;;;;5022020;28;20046;-74
2023/09/18 01:50:56;;;;;;;48.28;40.58;;;16.40;99.90;;;;;;5004281;28;20100;-74
2023/09/18 01:53:22;;;;;;;40.60;36.38;;;16.50;99.90;;;;;;5013020;28;20124;-74
2023/09/18 01:55:48;;;;;;;41.58;36.53;;;16.50;99.90;;;;;;5006846;28;20058;-74
2023/09/18 01:58:14;;;;;;;43.63;38.88;;;16.50;99.90;;;;;;5038802;28;20050;-75
2023/09/18 02:00:40;;;;;;;47.38;41.80;;;16.60;99.90;;;;;;4993995;28;20041;-73
2023/09/18 02:03:05;;;;;;;43.55;37.78;;;16.50;99.90;;;;;;5033861;28;20038;-74
2023/09/18 02:05:32;;;;;;;42.78;37.17;;;16.60;99.90;;;;;;4990016;28;20184;-74
2023/09/18 02:07:58;;;;;;;41.55;35.92;;;16.60;99.90;;;;;;5023262;28;20547;-74
2023/09/18 02:10:23;;;;;;;41.15;36.83;;;16.60;99.90;;;;;;5005932;28;20172;-74
2023/09/18 02:12:49;;;;;;;37.83;33.58;;;16.60;99.90;;;;;;5006886;28;20045;-74
2023/09/18 02:15:16;;;;;;;42.75;37.92;;;16.60;99.90;;;;;;5037520;28;20056;-74
2023/09/18 02:17:42;;;;;;;40.15;35.80;;;16.70;99.90;;;;;;4984961;28;20034;-74
2023/09/18 02:20:11;;;;;;;36.92;33.13;;;16.70;99.90;;;;;;5000816;28;20048;-74
2023/09/18 02:22:39;;;;;;;36.25;32.47;;;16.70;99.90;;;;;;5003324;28;20034;-74
2023/09/18 02:25:06;;;;;;;35.28;31.60;;;16.70;99.90;;;;;;5010719;28;20069;-74
2023/09/18 02:27:31;;;;;;;35.10;31.52;;;16.70;99.90;;;;;;5044194;28;20045;-75
2023/09/18 02:29:57;;;;;;;36.33;31.88;;;16.70;99.90;;;;;;5023832;28;20056;-75
2023/09/18 02:32:23;;;;;;;37.13;31.77;;;16.70;99.90;;;;;;5013728;28;20037;-75
2023/09/18 02:34:49;;;;;;;35.08;31.35;;;16.70;99.90;;;;;;4997152;28;20051;-75
2023/09/18 02:37:14;;;;;;;34.70;31.13;;;16.70;99.90;;;;;;5005534;28;20415;-75
2023/09/18 02:39:40;;;;;;;35.13;31.27;;;16.70;99.90;;;;;;4993964;28;20040;-75
2023/09/18 02:42:06;;;;;;;33.33;29.83;;;16.70;99.90;;;;;;5039518;28;20053;-75
2023/09/18 02:44:32;;;;;;;36.85;32.97;;;16.70;99.90;;;;;;5013927;28;20053;-76
2023/09/18 02:46:58;;;;;;;34.63;30.85;;;16.70;99.90;;;;;;5029444;28;20045;-74
2023/09/18 02:49:24;;;;;;;34.60;30.90;;;16.70;99.90;;;;;;5004817;28;20034;-74
2023/09/18 02:51:49;;;;;;;34.22;30.58;;;16.70;99.90;;;;;;4990120;28;20121;-75
2023/09/18 02:54:15;;;;;;;34.88;31.15;;;16.70;99.90;;;;;;5005383;28;20054;-75
2023/09/18 02:56:41;;;;;;;31.95;28.27;;;16.70;99.90;;;;;;5012547;28;20069;-74
2023/09/18 02:59:07;;;;;;;33.05;28.30;;;16.70;99.90;;;;;;5044655;28;20060;-74
2023/09/18 03:01:32;;;;;;;33.30;29.63;;;16.80;99.90;;;;;;5017441;28;20120;-74
2023/09/18 03:03:58;;;;;;;31.67;28.33;;;16.80;99.90;;;;;;5002990;28;20038;-75
2023/09/18 03:06:24;;;;;;;30.98;27.67;;;16.80;99.90;;;;;;4995326;28;20053;-75
2023/09/18 03:08:49;;;;;;;30.58;26.75;;;16.80;99.90;;;;;;5024034;28;20188;-75
2023/09/18 03:11:16;;;;;;;34.05;28.35;;;16.80;99.90;;;;;;5010620;28;20050;-74
2023/09/18 03:13:46;;;;;;;29.95;26.77;;;16.80;99.90;;;;;;4986654;28;20053;-74
2023/09/18 03:16:12;;;;;;;28.90;25.88;;;16.80;99.90;;;;;;5025968;28;20078;-75
2023/09/18 03:18:38;;;;;;;29.73;26.73;;;16.80;99.90;;;;;;5022456;28;20135;-74
2023/09/18 03:21:04;;;;;;;27.60;24.80;;;16.80;99.90;;;;;;5004480;28;20050;-74
2023/09/18 03:23:30;;;;;;;27.10;24.17;;;16.80;99.90;;;;;;4990334;28;20049;-74
2023/09/18 03:25:56;;;;;;;29.70;26.08;;;16.90;99.90;;;;;;4981980;28;20054;-75
2023/09/18 03:28:22;;;;;;;27.27;24.48;;;16.90;99.90;;;;;;5021517;28;20096;-74
2023/09/18 03:30:47;;;;;;;25.67;22.98;;;16.90;99.90;;;;;;5037953;28;20037;-75
2023/09/18 03:33:13;;;;;;;28.27;24.25;;;16.90;99.90;;;;;;5053624;28;20480;-75
2023/09/18 03:35:50;;;;;;;27.02;24.23;;;17.00;99.90;;;;;;4978113;28;20029;-74
2023/09/18 03:38:15;;;;;;;26.10;23.45;;;17.00;99.90;;;;;;5032677;28;20090;-74
2023/09/18 03:40:41;;;;;;;25.00;22.50;;;17.00;99.90;;;;;;4999769;28;20131;-74
2023/09/18 03:43:07;;;;;;;26.20;22.60;;;17.00;99.90;;;;;;5016122;28;20046;-74
2023/09/18 03:45:33;;;;;;;26.15;23.38;;;16.90;99.90;;;;;;5014556;28;20049;-74
2023/09/18 03:47:59;;;;;;;23.83;21.15;;;17.00;99.90;;;;;;5018652;28;21725;-74
2023/09/18 03:50:27;;;;;;;24.90;22.15;;;17.00;99.90;;;;;;5024994;28;20411;-74
2023/09/18 03:52:52;;;;;;;24.40;21.27;;;17.00;99.90;;;;;;5005084;28;20045;-74
2023/09/18 03:55:18;;;;;;;29.27;20.00;;;17.00;99.90;;;;;;5040472;28;20407;-74
2023/09/18 03:57:45;;;;;;;22.25;20.05;;;17.00;99.90;;;;;;5030127;28;20038;-73
2023/09/18 04:00:12;;;;;;;23.27;20.35;;;17.00;99.90;;;;;;5024355;28;20046;-74
2023/09/18 04:02:38;;;;;;;21.77;19.45;;;17.10;99.90;;;;;;5028032;28;20041;-74
2023/09/18 04:05:04;;;;;;;21.15;18.52;;;17.00;99.90;;;;;;5008179;28;20436;-73
2023/09/18 04:07:31;;;;;;;21.10;18.90;;;17.10;99.90;;;;;;5001365;28;20058;-73
2023/09/18 04:09:57;;;;;;;23.35;19.42;;;17.00;99.90;;;;;;4989045;28;20077;-73
2023/09/18 04:12:23;;;;;;;21.83;18.67;;;17.10;99.90;;;;;;5032942;28;20411;-74
2023/09/18 04:14:49;;;;;;;24.58;20.33;;;17.10;99.90;;;;;;5004899;28;20037;-74
2023/09/18 04:17:15;;;;;;;22.92;19.17;;;17.10;99.90;;;;;;4989304;28;20487;-74
2023/09/18 04:19:41;;;;;;;22.30;18.38;;;17.10;99.90;;;;;;5017572;28;20049;-74
2023/09/18 04:22:08;;;;;;;20.98;18.80;;;17.00;99.90;;;;;;4984663;28;20048;-74
2023/09/18 04:24:33;;;;;;;20.65;18.50;;;17.00;99.90;;;;;;5024430;28;20038;-74
2023/09/18 04:27:02;;;;;;;21.92;18.63;;;17.10;99.90;;;;;;4997237;28;20042;-75
2023/09/18 04:29:27;;;;;;;21.35;17.98;;;17.10;99.90;;;;;;5023377;28;20034;-74
2023/09/18 04:31:54;;;;;;;21.75;19.00;;;17.00;99.90;;;;;;5023335;28;20419;-74
2023/09/18 04:34:21;;;;;;;21.83;18.73;;;17.10;99.90;;;;;;4990523;28;20049;-74
2023/09/18 04:36:47;;;;;;;20.75;18.55;;;17.10;99.90;;;;;;5033662;28;20542;-74
2023/09/18 04:39:13;;;;;;;20.92;18.25;;;17.10;99.90;;;;;;5017680;28;20049;-74
2023/09/18 04:41:39;;;;;;;22.13;17.67;;;17.10;99.90;;;;;;5021085;28;20060;-74
2023/09/18 04:44:05;;;;;;;20.00;16.85;;;17.20;99.90;;;;;;5002116;28;20683;-74
2023/09/18 04:46:31;;;;;;;19.02;16.85;;;17.20;99.90;;;;;;5022486;28;20042;-74
2023/09/18 04:48:57;;;;;;;19.48;17.42;;;17.20;99.90;;;;;;5022127;28;20037;-74
2023/09/18 04:51:23;;;;;;;16.85;15.05;;;17.30;99.90;;;;;;5006642;28;20077;-74
2023/09/18 04:53:48;;;;;;;17.90;14.85;;;17.30;99.90;;;;;;5005855;28;20045;-75
2023/09/18 04:56:14;;;;;;;20.73;15.50;;;17.40;99.90;;;;;;5021841;28;20030;-74
2023/09/18 04:58:43;;;;;;;16.15;14.48;;;17.40;99.90;;;;;;5015159;28;20054;-74
2023/09/18 05:01:10;;;;;;;17.60;14.52;;;17.40;99.90;;;;;;4987808;28;20085;-74
2023/09/18 05:03:36;;;;;;;17.10;14.27;;;17.40;99.90;;;;;;4984459;28;20069;-74
2023/09/18 05:06:05;;;;;;;20.02;14.35;;;17.40;99.90;;;;;;5011101;28;20081;-75
2023/09/18 05:08:31;;;;;;;16.73;13.75;;;17.50;99.90;;;;;;4984456;28;20052;-74
2023/09/18 05:10:57;;;;;;;16.75;13.93;;;17.50;99.90;;;;;;5031338;28;20046;-75
2023/09/18 05:13:23;;;;;;;19.23;14.02;;;17.50;99.90;;;;;;5016558;28;20446;-74
2023/09/18 05:15:49;;;;;;;21.92;13.55;;;17.50;99.90;;;;;;5001149;28;20490;-74
2023/09/18 05:18:15;;;;;;;17.95;13.93;;;17.50;99.90;;;;;;5015731;28;20069;-74
2023/09/18 05:20:40;;;;;;;16.95;13.05;;;17.60;99.90;;;;;;5034768;28;20652;-74
2023/09/18 05:23:06;;;;;;;13.85;12.38;;;17.60;99.90;;;;;;4997805;28;20695;-75
2023/09/18 05:25:37;;;;;;;16.20;13.00;;;17.70;99.90;;;;;;5048505;28;20041;-75
2023/09/18 05:28:05;;;;;;;15.43;12.60;;;17.70;99.90;;;;;;5005697;28;20510;-75
2023/09/18 05:30:34;;;;;;;14.93;12.57;;;17.70;99.90;;;;;;5005085;28;20133;-75
2023/09/18 05:33:04;;;;;;;14.70;11.60;;;17.80;99.90;;;;;;5001007;28;20121;-75
2023/09/18 05:35:34;;;;;;;16.50;12.70;;;17.80;99.90;;;;;;5003777;28;20046;-76
2023/09/18 05:38:00;;;;;;;15.40;12.18;;;17.80;99.90;;;;;;5034195;28;20100;-75
2023/09/18 05:40:29;;;;;;;15.30;13.15;;;17.80;99.90;;;;;;5026690;28;20038;-75
2023/09/18 05:42:56;;;;;;;13.30;11.90;;;17.80;99.90;;;;;;4996089;28;20048;-75
2023/09/18 05:45:22;;;;;;;17.40;12.52;;;17.80;99.90;;;;;;4999803;28;20065;-75
2023/09/18 05:47:48;;;;;;;15.68;12.63;;;17.90;99.90;;;;;;5000597;28;20050;-75
2023/09/18 05:50:15;;;;;;;15.10;12.40;;;17.90;99.90;;;;;;4997996;28;20168;-74
2023/09/18 05:52:42;;;;;;;15.00;11.90;;;17.90;99.90;;;;;;5000032;28;20064;-75
2023/09/18 05:55:08;;;;;;;14.73;11.43;;;17.90;99.90;;;;;;4982807;28;20042;-75
2023/09/18 05:57:34;;;;;;;14.85;11.30;;;17.90;99.90;;;;;;5004150;28;20037;-75
2023/09/18 06:00:00;;;;;;;12.75;11.15;;;18.00;99.90;;;;;;5033544;28;20050;-75
2023/09/18 06:02:26;;;;;;;18.15;10.77;;;18.00;99.90;;;;;;5032667;28;20514;-76
2023/09/18 06:04:57;;;;;;;11.52;10.32;;;18.10;99.90;;;;;;5025341;28;20050;-75
2023/09/18 06:07:24;;;;;;;13.63;11.15;;;18.10;99.90;;;;;;5034527;28;20558;-74
2023/09/18 06:09:50;;;;;;;12.90;10.43;;;18.20;99.90;;;;;;4993289;28;20069;-75
2023/09/18 06:12:18;;;;;;;18.15;10.45;;;18.20;99.90;;;;;;5023009;28;20061;-76
2023/09/18 06:14:44;;;;;;;13.10;10.25;;;18.20;99.90;;;;;;5025816;28;20422;-77
2023/09/18 06:17:10;;;;;;;14.30;10.57;;;18.30;99.90;;;;;;4991708;28;20121;-75
2023/09/18 06:19:36;;;;;;;12.45;10.63;;;18.30;99.90;;;;;;5026037;28;20124;-75
2023/09/18 06:22:02;;;;;;;11.65;9.50;;;18.30;99.90;;;;;;5025093;28;20045;-75
2023/09/18 06:24:28;;;;;;;15.95;10.88;;;18.30;99.90;;;;;;5008153;28;20120;-75
2023/09/18 06:26:54;;;;;;;12.25;10.35;;;18.30;99.90;;;;;;4981527;28;20141;-74
2023/09/18 06:29:19;;;;;;;18.23;11.32;;;18.40;99.90;;;;;;5035393;28;20042;-74
2023/09/18 06:31:46;;;;;;;16.98;11.13;;;18.30;99.90;;;;;;5024922;28;20044;-73
2023/09/18 06:34:12;;;;;;;14.70;11.93;;;18.30;99.90;;;;;;5006441;28;20507;-73
2023/09/18 06:36:37;;;;;;;15.77;11.32;;;18.30;99.90;;;;;;5019852;28;20050;-73
2023/09/18 06:39:03;;;;;;;14.75;11.00;;;18.30;99.90;;;;;;4982963;28;20048;-73
2023/09/18 06:41:29;;;;;;;15.40;11.52;;;18.40;99.90;;;;;;4979020;28;20042;-73
2023/09/18 06:43:55;;;;;;;16.20;12.00;;;18.30;99.90;;;;;;5005559;28;20041;-74
2023/09/18 06:46:20;;;;;;;20.58;11.77;;;18.40;99.90;;;;;;5027624;28;20088;-73
2023/09/18 06:48:49;;;;;;;14.70;11.60;;;18.30;99.90;;;;;;4999948;28;20042;-73
2023/09/18 06:51:15;;;;;;;17.15;12.23;;;18.30;99.90;;;;;;4991368;28;20056;-73
2023/09/18 06:53:43;;;;;;;19.00;12.55;;;18.30;99.90;;;;;;5008810;28;20054;-73
2023/09/18 06:56:09;;;;;;;18.52;12.02;;;18.30;99.90;;;;;;5008902;28;20077;-73
2023/09/18 06:58:35;;;;;;;18.45;11.27;;;18.30;99.90;;;;;;5038521;28;20113;-73
2023/09/18 07:01:01;;;;;;;21.23;12.13;;;18.30;99.90;;;;;;5000612;28;20092;-73
2023/09/18 07:03:27;;;;;;;18.70;11.38;;;18.40;99.90;;;;;;4984735;28;20046;-74
2023/09/18 07:05:53;;;;;;;21.02;12.52;;;18.40;99.90;;;;;;5020258;28;20046;-73
2023/09/18 07:08:22;;;;;;;16.23;12.13;;;18.40;99.90;;;;;;5026604;28;21083;-73
2023/09/18 07:10:52;;;;;;;20.25;12.32;;;18.50;99.90;;;;;;5022965;28;20080;-69
2023/09/18 07:13:17;;;;;;;19.02;13.07;;;18.50;99.90;;;;;;4990836;28;20130;-69
2023/09/18 07:15:43;;;;;;;14.88;12.88;;;18.60;99.90;;;;;;4991568;28;20064;-69
2023/09/18 07:18:14;;;;;;;21.75;15.38;;;18.60;99.90;;;;;;4994797;28;20517;-66
2023/09/18 07:20:46;;;;;;;18.23;15.13;;;18.70;99.90;;;;;;5019771;28;20045;-67
2023/09/18 07:23:12;;;;;;;;;;;18.70;99.90;;;;;;5029237;28;20095;-67
2023/09/18 07:25:38;;;;;;;24.55;16.13;;;18.70;99.90;;;;;;5007291;28;19925;-67
2023/09/18 07:28:08;;;;;;;19.98;15.45;;;18.60;99.90;;;;;;5006667;28;20099;-67
2023/09/18 07:30:37;;;;;;;21.52;15.45;;;18.70;99.90;;;;;;4985422;28;20045;-70
2023/09/18 07:33:03;;;;;;;18.85;15.68;;;18.70;99.90;;;;;;5027129;28;20045;-70
2023/09/18 07:35:28;;;;;;;19.95;16.48;;;18.70;99.90;;;;;;5013901;28;20528;-70
2023/09/18 07:37:54;;;;;;;21.95;16.45;;;18.70;99.90;;;;;;5028200;28;20050;-70
2023/09/18 07:40:21;;;;;;;23.98;16.60;;;18.80;99.90;;;;;;4978414;28;20121;-71
2023/09/18 07:42:47;;;;;;;25.80;17.92;;;18.70;99.90;;;;;;5001686;28;20046;-70
2023/09/18 07:45:13;;;;;;;17.73;15.73;;;18.80;99.90;;;;;;4996989;28;20091;-68
2023/09/18 07:47:39;;;;;;;19.63;15.90;;;18.80;99.90;;;;;;5019058;28;20496;-71
2023/09/18 07:50:06;;;;;;;26.60;18.88;;;18.80;99.90;;;;;;4954342;28;1147152;-71
2023/09/18 07:52:32;;;;;;;22.17;16.70;;;18.90;99.90;;;;;;5028549;28;20411;-71
2023/09/18 07:54:58;;;;;;;21.60;16.77;;;18.90;99.90;;;;;;4998904;28;20035;-71
2023/09/18 07:57:25;;;;;;;21.00;17.80;;;19.00;99.90;;;;;;5023146;28;20054;-72
2023/09/18 07:59:51;;;;;;;28.23;19.25;;;19.00;99.90;;;;;;5019255;28;20121;-71
2023/09/18 08:02:17;;;;;;;25.42;18.35;;;19.00;99.90;;;;;;5020737;28;20123;-72
2023/09/18 08:04:43;;;;;;;22.20;18.13;;;19.10;99.90;;;;;;5004202;28;20474;-71
2023/09/18 08:07:09;;;;;;;23.98;17.90;;;19.10;99.90;;;;;;5032083;28;20038;-71
2023/09/18 08:09:38;;;;;;;22.20;17.85;;;19.10;99.90;;;;;;5011576;28;20132;-71
2023/09/18 08:12:08;;;;;;;19.35;16.77;;;19.10;99.90;;;;;;5034723;28;20046;-71
2023/09/18 08:14:37;;;;;;;20.83;17.10;;;19.20;99.90;;;;;;5019300;28;20124;-71
2023/09/18 08:17:04;;;;;;;22.45;17.23;;;19.20;99.90;;;;;;5043762;28;20095;-71
2023/09/18 08:19:33;;;;;;;21.45;17.02;;;19.20;99.90;;;;;;5018991;28;20057;-69
2023/09/18 08:21:59;;;;;;;23.00;16.90;;;19.20;99.90;;;;;;5040865;28;20095;-69
2023/09/18 08:24:25;;;;;;;18.38;16.40;;;19.20;99.90;;;;;;5005589;28;20476;-71
2023/09/18 08:26:51;;;;;;;17.98;15.30;;;19.30;99.90;;;;;;5029423;28;20060;-71
2023/09/18 08:29:17;;;;;;;19.80;16.50;;;19.30;99.90;;;;;;5033289;28;20395;-71
2023/09/18 08:31:43;;;;;;;19.67;15.20;;;19.30;99.90;;;;;;5008117;28;20076;-71
2023/09/18 08:34:09;;;;;;;19.98;15.43;;;19.30;99.90;;;;;;4991614;28;20077;-71
2023/09/18 08:36:35;;;;;;;28.67;16.05;;;19.20;99.90;;;;;;5023777;28;20037;-71
2023/09/18 08:39:01;;;;;;;21.75;16.20;;;19.20;99.90;;;;;;5043324;28;20137;-69
2023/09/18 08:41:30;;;;;;;21.85;16.67;;;19.30;99.90;;;;;;5000111;28;20451;-69
2023/09/18 08:44:03;;;;;;;23.42;15.88;;;19.30;99.90;;;;;;5015212;28;20068;-67
2023/09/18 08:46:34;;;;;;;22.88;17.23;;;19.30;99.90;;;;;;4999581;28;20045;-67
2023/09/18 08:49:01;;;;;;;20.35;17.00;;;19.40;99.90;;;;;;5037845;28;20094;-67
2023/09/18 08:51:28;;;;;;;26.73;18.02;;;19.40;99.90;;;;;;4999444;28;20050;-67
2023/09/18 08:53:55;;;;;;;21.33;16.50;;;19.40;99.90;;;;;;5004744;28;20130;-67
2023/09/18 08:56:22;;;;;;;24.98;16.55;;;19.40;99.90;;;;;;4997085;28;20042;-67
2023/09/18 08:58:48;;;;;;;22.70;16.90;;;19.40;99.90;;;;;;4998798;28;20050;-67
2023/09/18 09:01:14;;;;;;;18.83;15.57;;;19.50;99.90;;;;;;5031681;28;20041;-67
2023/09/18 09:03:41;;;;;;;18.00;16.10;;;19.50;99.90;;;;;;5002703;28;20176;-67
2023/09/18 09:06:09;;;;;;;21.90;18.15;;;19.60;99.90;;;;;;5010168;28;20500;-67
2023/09/18 09:08:36;;;;;;;22.30;16.73;;;19.70;99.90;;;;;;5018549;28;20049;-67
2023/09/18 09:11:02;;;;;;;22.88;16.65;;;19.80;99.90;;;;;;5010668;28;20053;-67
2023/09/18 09:13:28;;;;;;;20.73;16.15;;;19.90;99.90;;;;;;5043600;28;20495;-67
2023/09/18 09:15:56;;;;;;;20.25;13.73;;;19.90;99.90;;;;;;4988333;28;20045;-67
2023/09/18 09:18:28;;;;;;;19.00;13.57;;;19.90;99.90;;;;;;5015415;28;20065;-67
2023/09/18 09:20:59;;;;;;;18.35;13.05;;;19.90;99.90;;;;;;4991093;28;20046;-67
2023/09/18 09:23:30;;;;;;;17.13;13.57;;;19.90;99.90;;;;;;5011057;28;20092;-67
2023/09/18 09:26:16;;;;;;;16.23;12.70;;;19.90;99.90;;;;;;4993710;28;20053;-66
2023/09/18 09:28:46;;;;;;;17.23;11.82;;;19.90;99.90;;;;;;5042473;28;20057;-66
2023/09/18 09:31:24;;;;;;;18.70;12.43;;;20.00;99.90;;;;;;5014745;28;20120;-66
2023/09/18 09:33:56;;;;;;;12.55;10.05;;;20.00;99.90;;;;;;5022602;28;20049;-66
2023/09/18 09:36:24;;;;;;;15.57;10.25;;;20.00;99.90;;;;;;5010168;28;20042;-66
2023/09/18 09:38:56;;;;;;;19.10;11.30;;;20.00;99.90;;;;;;5010790;28;20046;-66
2023/09/18 09:41:22;;;;;;;16.52;10.60;;;20.00;99.90;;;;;;5016396;28;20046;-66
2023/09/18 09:43:51;;;;;;;16.38;10.52;;;20.00;99.90;;;;;;4985199;28;20061;-66
2023/09/18 09:46:18;;;;;;;14.60;10.43;;;20.00;99.90;;;;;;5015319;28;20050;-66
2023/09/18 09:49:06;;;;;;;12.20;9.52;;;20.00;99.90;;;;;;5037620;28;20041;-66
2023/09/18 09:51:34;;;;;;;10.23;8.98;;;20.10;99.90;;;;;;5022425;28;20050;-66
2023/09/18 09:54:00;;;;;;;11.35;9.65;;;20.20;99.90;;;;;;5004748;28;20046;-66
2023/09/18 09:56:45;;;;;;;10.27;8.55;;;20.30;99.90;;;;;;5018969;28;20040;-66
2023/09/18 09:59:13;;;;;;;12.65;8.05;;;20.40;99.90;;;;;;4990608;28;20504;-66
2023/09/18 10:01:40;;;;;;;9.75;7.30;;;20.70;99.90;;;;;;5033183;28;20072;-66
2023/09/18 10:04:10;;;;;;;11.25;7.30;;;20.80;99.90;;;;;;4993629;28;20034;-65
2023/09/18 10:06:36;;;;;;;12.73;7.80;;;20.80;99.90;;;;;;5026458;28;20176;-65
2023/09/18 10:09:06;;;;;;;9.10;7.13;;;20.80;99.90;;;;;;5010440;28;20053;-65
2023/09/18 10:11:36;;;;;;;6.93;6.22;;;20.70;99.90;;;;;;5010277;28;20418;-65
2023/09/18 10:14:12;;;;;;;9.85;6.60;;;20.70;99.90;;;;;;5034329;28;20376;-65
2023/09/18 10:16:41;;;;;;;9.50;6.78;;;20.70;99.90;;;;;;5027250;28;20522;-65
2023/09/18 10:19:37;;;;;;;6.82;6.10;;;20.70;99.90;;;;;;5044249;28;20053;-65
2023/09/18 10:22:17;;;;;;;9.50;6.28;;;20.70;99.90;;;;;;5045690;28;20061;-65
2023/09/18 10:24:47;;;;;;;10.45;6.57;;;20.80;99.90;;;;;;5015859;28;20147;-65
2023/09/18 10:27:14;;;;;;;6.53;5.70;;;20.90;99.90;;;;;;5048483;28;20085;-65
2023/09/18 10:29:45;;;;;;;6.38;5.53;;;20.90;99.90;;;;;;5014768;28;20128;-65
2023/09/18 10:32:12;;;;;;;8.48;5.63;;;20.90;99.90;;;;;;5016227;28;20128;-65
2023/09/18 10:34:38;;;;;;;7.60;4.70;;;20.90;99.90;;;;;;4998990;28;20045;-65
2023/09/18 10:37:07;;;;;;;6.15;5.55;;;21.00;99.90;;;;;;5027031;28;20153;-65
2023/09/18 10:39:36;;;;;;;5.97;4.63;;;21.10;99.90;;;;;;5034179;28;20033;-64
2023/09/18 10:42:03;;;;;;;8.27;5.25;;;21.20;99.90;;;;;;5049627;28;20048;-65
2023/09/18 10:44:33;;;;;;;7.15;4.97;;;21.20;99.90;;;;;;5049047;28;20053;-65
2023/09/18 10:47:01;;;;;;;8.70;5.13;;;21.30;99.90;;;;;;5048874;28;20037;-65
2023/09/18 10:49:27;;;;;;;5.30;4.35;;;21.30;99.90;;;;;;5020643;28;20053;-65
2023/09/18 10:51:58;;;;;;;5.57;4.70;;;21.30;99.90;;;;;;5020867;28;20053;-65
2023/09/18 10:54:25;;;;;;;7.25;4.63;;;21.40;99.90;;;;;;5020267;28;20033;-65
2023/09/18 10:56:52;;;;;;;6.20;4.60;;;21.50;99.90;;;;;;5005336;28;20079;-64
2023/09/18 10:59:18;;;;;;;5.25;4.10;;;21.60;99.90;;;;;;5037787;28;20576;-65
2023/09/18 11:01:46;;;;;;;8.93;4.30;;;21.70;99.90;;;;;;5017612;28;20056;-64
2023/09/18 11:04:14;;;;;;;5.40;3.95;;;21.80;99.90;;;;;;5033553;28;20473;-63
2023/09/18 11:07:19;;;;;;;5.43;3.97;;;22.10;99.90;;;;;;5012890;28;20037;-64
2023/09/18 11:09:45;;;;;;;5.55;3.97;;;22.20;99.90;;;;;;5011031;28;20076;-65
2023/09/18 11:12:14;;;;;;;5.88;3.60;;;22.20;99.90;;;;;;5046826;28;20041;-64
2023/09/18 11:14:57;;;;;;;4.47;3.83;;;22.30;99.90;;;;;;5019755;28;20186;-65
2023/09/18 11:17:33;;;;;;;6.03;3.22;;;22.20;99.90;;;;;;5019555;28;20052;-65
2023/09/18 11:20:14;;;;;;;4.68;3.40;;;22.30;99.90;;;;;;5016585;28;20609;-64
2023/09/18 11:23:04;;;;;;;4.30;3.50;;;22.60;99.90;;;;;;5039633;28;20040;-64
2023/09/18 11:25:42;;;;;;;11.82;3.60;;;22.70;99.90;;;;;;5027200;28;20041;-65
2023/09/18 11:28:16;;;;;;;7.35;3.80;;;22.80;99.90;;;;;;5005650;28;20233;-65
2023/09/18 11:30:58;;;;;;;6.30;3.80;;;22.80;99.90;;;;;;4993716;28;20061;-64
2023/09/18 11:33:33;;;;;;;;;;;22.60;99.90;;;;;;5000424;28;20087;-63
2023/09/18 11:36:25;;;;;;;7.03;3.60;;;22.40;99.90;;;;;;5025447;28;20345;-64
2023/09/18 11:38:56;;;;;;;3.47;2.88;;;22.30;99.90;;;;;;5027034;28;20056;-64
2023/09/18 11:41:27;;;;;;;3.70;2.85;;;22.30;99.90;;;;;;5000832;28;20042;-65
2023/09/18 11:44:16;;;;;;;3.58;3.03;;;22.20;99.90;;;;;;4988438;28;20049;-63
2023/09/18 11:46:51;;;;;;;3.22;2.70;;;22.30;99.90;;;;;;5011973;28;20095;-62
2023/09/18 11:49:27;;;;;;;6.43;2.97;;;22.40;99.90;;;;;;5008964;28;20052;-62
2023/09/18 11:51:55;;;;;;;4.03;2.83;;;22.70;99.90;;;;;;4982018;28;20507;-62
2023/09/18 11:54:21;;;;;;;3.90;3.10;;;22.90;99.90;;;;;;4985086;28;20069;-62
2023/09/18 11:56:47;;;;;;;5.43;2.80;;;23.00;99.90;;;;;;5018781;28;20519;-65
2023/09/18 11:59:13;;;;;;;4.10;2.92;;;23.10;99.90;;;;;;4966782;28;20052;-65
2023/09/18 12:01:46;;;;;;;5.00;2.80;;;23.30;99.90;;;;;;4998053;28;20132;-64
2023/09/18 12:04:13;;;;;;;3.55;2.53;;;23.40;99.90;;;;;;4982379;28;20045;-65
2023/09/18 12:06:39;;;;;;;3.15;2.38;;;23.50;99.90;;;;;;5026622;28;20050;-66
2023/09/18 12:09:06;;;;;;;3.10;2.42;;;23.60;99.90;;;;;;5004661;28;20551;-66
2023/09/18 12:11:37;;;;;;;3.42;2.28;;;23.70;99.90;;;;;;4997797;28;20053;-65
2023/09/18 12:14:04;;;;;;;3.10;2.50;;;23.80;99.90;;;;;;4995697;28;20042;-65
2023/09/18 12:16:30;;;;;;;5.18;2.40;;;23.80;99.90;;;;;;4980126;28;20054;-65
2023/09/18 12:18:56;;;;;;;5.35;2.70;;;23.60;99.90;;;;;;4997503;28;20511;-65
2023/09/18 12:21:22;;;;;;;3.63;2.60;;;23.50;99.90;;;;;;4995520;28;20145;-66
2023/09/18 12:23:49;;;;;;;2.90;2.30;;;23.30;99.90;;;;;;4996760;28;20562;-65
2023/09/18 12:26:17;;;;;;;3.97;2.17;;;23.10;99.90;;;;;;4979280;28;20061;-68
2023/09/18 12:28:44;;;;;;;3.67;2.33;;;23.00;99.90;;;;;;4997221;28;20501;-65
2023/09/18 12:31:15;;;;;;;5.38;2.78;;;22.90;99.90;;;;;;4995323;28;20042;-65
2023/09/18 12:33:43;;;;;;;3.15;2.42;;;22.70;99.90;;;;;;4997611;28;20045;-65